Decatur, Texas
Current Conditions -  °F | °C
As of 12:55 AM on Monday 24 Nov 2014 (Local Time) from KLUD Reporting Station
Clear Clear  
Wind Chill: 39°   Ceiling: Unl
Heat Index: 44°   Visibility: 10mi
Dew Point: 36°   Wind: 8mph
Humidity: 73%   Direction: 270°W
Pressure: 29.86"   Gusts: NA
Location:  33.23°N, 97.59°W
Report Text: KLUD 240655Z AUTO 27007KT 10SM CLR 07/02 A2986 RMK AO2 T00660020
Loading
Personal Weather Stations






























Interactive Weather Map New forecast layout! Learn more

10-Day Weather Forecast

Advertisements
Track Severe Weather on mobile